sensor_id;sensor_type;location;lat;lon;timestamp;temperature;humidity
7784;DHT22;19359;51.402;6.778;2022-07-17T00:00:30;16.60;99.90
7784;DHT22;19359;51.402;6.778;2022-07-17T00:02:57;16.50;99.90
7784;DHT22;19359;51.402;6.778;2022-07-17T00:05:24;16.50;99.90
7784;DHT22;19359;51.402;6.778;2022-07-17T00:07:51;16.50;99.90
7784;DHT22;19359;51.402;6.778;2022-07-17T00:10:18;16.40;99.90
7784;DHT22;19359;51.402;6.778;2022-07-17T00:12:45;16.30;99.90
7784;DHT22;19359;51.402;6.778;2022-07-17T00:15:12;16.30;99.90
7784;DHT22;19359;51.402;6.778;2022-07-17T00:17:40;16.20;99.90
7784;DHT22;19359;51.402;6.778;2022-07-17T00:20:08;16.20;99.90
7784;DHT22;19359;51.402;6.778;2022-07-17T00:22:35;16.10;99.90
7784;DHT22;19359;51.402;6.778;2022-07-17T00:25:03;16.00;99.90
7784;DHT22;19359;51.402;6.778;2022-07-17T00:27:30;15.80;99.90
7784;DHT22;19359;51.402;6.778;2022-07-17T00:29:57;15.80;99.90
7784;DHT22;19359;51.402;6.778;2022-07-17T00:32:23;15.70;99.90
7784;DHT22;19359;51.402;6.778;2022-07-17T00:34:51;15.60;99.90
7784;DHT22;19359;51.402;6.778;2022-07-17T00:37:18;15.50;99.90
7784;DHT22;19359;51.402;6.778;2022-07-17T00:39:45;15.40;99.90
7784;DHT22;19359;51.402;6.778;2022-07-17T00:42:12;15.30;99.90
7784;DHT22;19359;51.402;6.778;2022-07-17T00:44:40;15.30;99.90
7784;DHT22;19359;51.402;6.778;2022-07-17T00:47:11;15.20;99.90
7784;DHT22;19359;51.402;6.778;2022-07-17T00:49:38;15.30;99.90
7784;DHT22;19359;51.402;6.778;2022-07-17T00:52:06;15.20;99.90
7784;DHT22;19359;51.402;6.778;2022-07-17T00:54:35;15.10;99.90
7784;DHT22;19359;51.402;6.778;2022-07-17T00:57:06;15.00;99.90
7784;DHT22;19359;51.402;6.778;2022-07-17T00:59:33;15.00;99.90
7784;DHT22;19359;51.402;6.778;2022-07-17T01:02:00;14.90;99.90
7784;DHT22;19359;51.402;6.778;2022-07-17T01:04:28;14.90;99.90
7784;DHT22;19359;51.402;6.778;2022-07-17T01:06:55;14.90;99.90
7784;DHT22;19359;51.402;6.778;2022-07-17T01:09:23;14.90;99.90
7784;DHT22;19359;51.402;6.778;2022-07-17T01:11:50;14.80;99.90
7784;DHT22;19359;51.402;6.778;2022-07-17T01:14:18;14.80;99.90
7784;DHT22;19359;51.402;6.778;2022-07-17T01:16:45;14.80;99.90
7784;DHT22;19359;51.402;6.778;2022-07-17T01:19:12;14.70;99.90
7784;DHT22;19359;51.402;6.778;2022-07-17T01:21:42;14.60;99.90
7784;DHT22;19359;51.402;6.778;2022-07-17T01:24:09;14.60;99.90
7784;DHT22;19359;51.402;6.778;2022-07-17T01:26:36;14.50;99.90
7784;DHT22;19359;51.402;6.778;2022-07-17T01:29:03;14.50;99.90
7784;DHT22;19359;51.402;6.778;2022-07-17T01:31:30;14.50;99.90
7784;DHT22;19359;51.402;6.778;2022-07-17T01:33:56;14.40;99.90
7784;DHT22;19359;51.402;6.778;2022-07-17T01:36:25;14.40;99.90
7784;DHT22;19359;51.402;6.778;2022-07-17T01:38:53;14.30;99.90
7784;DHT22;19359;51.402;6.778;2022-07-17T01:41:22;14.30;99.90
7784;DHT22;19359;51.402;6.778;2022-07-17T01:43:48;14.30;99.90
7784;DHT22;19359;51.402;6.778;2022-07-17T01:46:15;14.30;99.90
7784;DHT22;19359;51.402;6.778;2022-07-17T01:48:42;14.30;99.90
7784;DHT22;19359;51.402;6.778;2022-07-17T01:51:09;14.30;99.90
7784;DHT22;19359;51.402;6.778;2022-07-17T01:53:36;14.30;99.90
7784;DHT22;19359;51.402;6.778;2022-07-17T01:56:05;14.30;99.90
7784;DHT22;19359;51.402;6.778;2022-07-17T01:58:33;14.30;99.90
7784;DHT22;19359;51.402;6.778;2022-07-17T02:01:00;14.30;99.90
7784;DHT22;19359;51.402;6.778;2022-07-17T02:03:27;14.30;99.90
7784;DHT22;19359;51.402;6.778;2022-07-17T02:05:53;14.20;99.90
7784;DHT22;19359;51.402;6.778;2022-07-17T02:08:20;14.20;99.90
7784;DHT22;19359;51.402;6.778;2022-07-17T02:10:47;14.20;99.90
7784;DHT22;19359;51.402;6.778;2022-07-17T02:13:15;14.20;99.90
7784;DHT22;19359;51.402;6.778;2022-07-17T02:15:42;14.20;99.90
7784;DHT22;19359;51.402;6.778;2022-07-17T02:18:09;14.20;99.90
7784;DHT22;19359;51.402;6.778;2022-07-17T02:20:36;14.10;99.90
7784;DHT22;19359;51.402;6.778;2022-07-17T02:23:03;14.10;99.90
7784;DHT22;19359;51.402;6.778;2022-07-17T02:25:29;14.10;99.90
7784;DHT22;19359;51.402;6.778;2022-07-17T02:27:57;13.90;99.90
7784;DHT22;19359;51.402;6.778;2022-07-17T02:30:25;13.80;99.90
7784;DHT22;19359;51.402;6.778;2022-07-17T02:32:52;13.80;99.90
7784;DHT22;19359;51.402;6.778;2022-07-17T02:35:18;13.70;99.90
7784;DHT22;19359;51.402;6.778;2022-07-17T02:37:45;13.50;99.90
7784;DHT22;19359;51.402;6.778;2022-07-17T02:40:12;13.50;99.90
7784;DHT22;19359;51.402;6.778;2022-07-17T02:42:39;13.40;99.90
7784;DHT22;19359;51.402;6.778;2022-07-17T02:45:07;13.40;99.90
7784;DHT22;19359;51.402;6.778;2022-07-17T02:47:36;13.40;99.90
7784;DHT22;19359;51.402;6.778;2022-07-17T02:50:05;13.40;99.90
7784;DHT22;19359;51.402;6.778;2022-07-17T02:52:32;13.50;99.90
7784;DHT22;19359;51.402;6.778;2022-07-17T02:54:59;13.50;99.90
7784;DHT22;19359;51.402;6.778;2022-07-17T02:57:26;13.40;99.90
7784;DHT22;19359;51.402;6.778;2022-07-17T02:59:53;13.40;99.90
7784;DHT22;19359;51.402;6.778;2022-07-17T03:02:19;13.40;99.90
7784;DHT22;19359;51.402;6.778;2022-07-17T03:04:47;13.40;99.90
7784;DHT22;19359;51.402;6.778;2022-07-17T03:07:14;13.30;99.90
7784;DHT22;19359;51.402;6.778;2022-07-17T03:09:41;13.30;99.90
7784;DHT22;19359;51.402;6.778;2022-07-17T03:12:08;13.30;99.90
7784;DHT22;19359;51.402;6.778;2022-07-17T03:14:36;13.30;99.90
7784;DHT22;19359;51.402;6.778;2022-07-17T03:19:30;13.20;99.90
7784;DHT22;19359;51.402;6.778;2022-07-17T03:21:58;13.20;99.90
7784;DHT22;19359;51.402;6.778;2022-07-17T03:24:25;13.10;99.90
7784;DHT22;19359;51.402;6.778;2022-07-17T03:26:52;13.20;99.90
7784;DHT22;19359;51.402;6.778;2022-07-17T03:31:46;13.00;99.90
7784;DHT22;19359;51.402;6.778;2022-07-17T03:34:13;13.00;99.90
7784;DHT22;19359;51.402;6.778;2022-07-17T03:36:40;12.90;99.90
7784;DHT22;19359;51.402;6.778;2022-07-17T03:39:08;13.00;99.90
7784;DHT22;19359;51.402;6.778;2022-07-17T03:41:35;12.90;99.90
7784;DHT22;19359;51.402;6.778;2022-07-17T03:44:02;12.90;99.90
7784;DHT22;19359;51.402;6.778;2022-07-17T03:46:29;12.90;99.90
7784;DHT22;19359;51.402;6.778;2022-07-17T03:48:56;12.90;99.90
7784;DHT22;19359;51.402;6.778;2022-07-17T03:51:23;12.90;99.90
7784;DHT22;19359;51.402;6.778;2022-07-17T03:53:50;12.90;99.90
7784;DHT22;19359;51.402;6.778;2022-07-17T03:56:18;12.90;99.90
7784;DHT22;19359;51.402;6.778;2022-07-17T03:58:45;12.90;99.90
7784;DHT22;19359;51.402;6.778;2022-07-17T04:03:39;12.90;99.90
7784;DHT22;19359;51.402;6.778;2022-07-17T04:06:05;12.90;99.90
7784;DHT22;19359;51.402;6.778;2022-07-17T04:08:32;12.90;99.90
7784;DHT22;19359;51.402;6.778;2022-07-17T04:10:59;13.00;99.90
7784;DHT22;19359;51.402;6.778;2022-07-17T04:13:27;13.00;99.90
7784;DHT22;19359;51.402;6.778;2022-07-17T04:15:54;13.00;99.90
7784;DHT22;19359;51.402;6.778;2022-07-17T04:18:24;13.30;99.90
7784;DHT22;19359;51.402;6.778;2022-07-17T04:20:52;13.30;99.90
7784;DHT22;19359;51.402;6.778;2022-07-17T04:23:20;13.40;99.90
7784;DHT22;19359;51.402;6.778;2022-07-17T04:25:47;13.40;99.90
7784;DHT22;19359;51.402;6.778;2022-07-17T04:28:14;13.50;99.90
7784;DHT22;19359;51.402;6.778;2022-07-17T04:30:42;13.40;99.90
7784;DHT22;19359;51.402;6.778;2022-07-17T04:33:09;13.50;99.90
7784;DHT22;19359;51.402;6.778;2022-07-17T04:35:36;13.40;99.90
7784;DHT22;19359;51.402;6.778;2022-07-17T04:38:03;13.50;99.90
7784;DHT22;19359;51.402;6.778;2022-07-17T04:40:30;13.60;99.90
7784;DHT22;19359;51.402;6.778;2022-07-17T04:42:57;13.70;99.90
7784;DHT22;19359;51.402;6.778;2022-07-17T04:45:24;13.80;99.90
7784;DHT22;19359;51.402;6.778;2022-07-17T04:47:53;14.00;99.90
7784;DHT22;19359;51.402;6.778;2022-07-17T04:50:20;14.10;99.90
7784;DHT22;19359;51.402;6.778;2022-07-17T04:52:47;14.10;99.90
7784;DHT22;19359;51.402;6.778;2022-07-17T04:55:14;14.20;99.90
7784;DHT22;19359;51.402;6.778;2022-07-17T04:57:41;14.20;99.90
7784;DHT22;19359;51.402;6.778;2022-07-17T05:00:09;14.30;99.90
7784;DHT22;19359;51.402;6.778;2022-07-17T05:02:37;14.30;99.90
7784;DHT22;19359;51.402;6.778;2022-07-17T05:05:06;14.30;99.90
7784;DHT22;19359;51.402;6.778;2022-07-17T05:07:33;14.40;99.90
7784;DHT22;19359;51.402;6.778;2022-07-17T05:09:59;14.40;99.90
7784;DHT22;19359;51.402;6.778;2022-07-17T05:12:26;14.50;99.90
7784;DHT22;19359;51.402;6.778;2022-07-17T05:14:53;14.60;99.90
7784;DHT22;19359;51.402;6.778;2022-07-17T05:17:20;14.60;99.90
7784;DHT22;19359;51.402;6.778;2022-07-17T05:19:47;14.60;99.90
7784;DHT22;19359;51.402;6.778;2022-07-17T05:22:15;14.80;99.90
7784;DHT22;19359;51.402;6.778;2022-07-17T05:24:42;15.10;99.90
7784;DHT22;19359;51.402;6.778;2022-07-17T05:27:09;15.10;99.90
7784;DHT22;19359;51.402;6.778;2022-07-17T05:29:36;15.20;99.90
7784;DHT22;19359;51.402;6.778;2022-07-17T05:32:03;15.40;99.90
7784;DHT22;19359;51.402;6.778;2022-07-17T05:34:30;15.60;99.90
7784;DHT22;19359;51.402;6.778;2022-07-17T05:36:57;15.60;99.90
7784;DHT22;19359;51.402;6.778;2022-07-17T05:39:25;15.90;99.90
7784;DHT22;19359;51.402;6.778;2022-07-17T05:41:52;16.00;99.90
7784;DHT22;19359;51.402;6.778;2022-07-17T05:44:18;16.20;99.90
7784;DHT22;19359;51.402;6.778;2022-07-17T05:46:45;16.10;99.90
7784;DHT22;19359;51.402;6.778;2022-07-17T05:49:12;16.40;99.90
7784;DHT22;19359;51.402;6.778;2022-07-17T05:51:39;16.30;99.90
7784;DHT22;19359;51.402;6.778;2022-07-17T05:54:06;16.50;99.90
7784;DHT22;19359;51.402;6.778;2022-07-17T05:56:34;16.60;99.90
7784;DHT22;19359;51.402;6.778;2022-07-17T05:59:01;16.70;99.90
7784;DHT22;19359;51.402;6.778;2022-07-17T06:01:27;16.90;99.90
7784;DHT22;19359;51.402;6.778;2022-07-17T06:03:54;16.90;99.90
7784;DHT22;19359;51.402;6.778;2022-07-17T06:06:21;16.90;99.90
7784;DHT22;19359;51.402;6.778;2022-07-17T06:08:48;16.80;99.90
7784;DHT22;19359;51.402;6.778;2022-07-17T06:11:15;16.90;99.90
7784;DHT22;19359;51.402;6.778;2022-07-17T06:13:43;17.00;99.90
7784;DHT22;19359;51.402;6.778;2022-07-17T06:16:10;17.10;99.90
7784;DHT22;19359;51.402;6.778;2022-07-17T06:18:37;17.30;99.90
7784;DHT22;19359;51.402;6.778;2022-07-17T06:23:31;17.30;99.90
7784;DHT22;19359;51.402;6.778;2022-07-17T06:25:58;17.50;99.90
7784;DHT22;19359;51.402;6.778;2022-07-17T06:28:25;17.40;99.90
7784;DHT22;19359;51.402;6.778;2022-07-17T06:30:53;17.50;99.90
7784;DHT22;19359;51.402;6.778;2022-07-17T06:33:20;17.60;99.90
7784;DHT22;19359;51.402;6.778;2022-07-17T06:35:47;17.70;99.90
7784;DHT22;19359;51.402;6.778;2022-07-17T06:38:14;17.70;99.90
7784;DHT22;19359;51.402;6.778;2022-07-17T06:40:40;17.80;99.90
7784;DHT22;19359;51.402;6.778;2022-07-17T06:43:08;17.90;99.90
7784;DHT22;19359;51.402;6.778;2022-07-17T06:45:35;18.00;99.90
7784;DHT22;19359;51.402;6.778;2022-07-17T06:48:04;18.10;99.90
7784;DHT22;19359;51.402;6.778;2022-07-17T06:50:31;18.20;99.90
7784;DHT22;19359;51.402;6.778;2022-07-17T06:52:58;18.30;99.90
7784;DHT22;19359;51.402;6.778;2022-07-17T06:55:24;18.30;99.90
7784;DHT22;19359;51.402;6.778;2022-07-17T06:57:51;18.50;99.90
7784;DHT22;19359;51.402;6.778;2022-07-17T07:00:18;18.50;99.90
7784;DHT22;19359;51.402;6.778;2022-07-17T07:02:45;18.70;99.90
7784;DHT22;19359;51.402;6.778;2022-07-17T07:05:13;18.80;99.90
7784;DHT22;19359;51.402;6.778;2022-07-17T07:07:40;18.80;99.90
7784;DHT22;19359;51.402;6.778;2022-07-17T07:10:08;19.00;99.90
7784;DHT22;19359;51.402;6.778;2022-07-17T07:15:03;19.10;99.90
7784;DHT22;19359;51.402;6.778;2022-07-17T07:17:30;19.20;99.90
7784;DHT22;19359;51.402;6.778;2022-07-17T07:19:58;19.30;99.90
7784;DHT22;19359;51.402;6.778;2022-07-17T07:22:26;19.30;99.90
7784;DHT22;19359;51.402;6.778;2022-07-17T07:24:53;19.40;99.90
7784;DHT22;19359;51.402;6.778;2022-07-17T07:27:20;19.40;99.90
7784;DHT22;19359;51.402;6.778;2022-07-17T07:29:46;19.60;99.90
7784;DHT22;19359;51.402;6.778;2022-07-17T07:32:13;19.60;99.90
7784;DHT22;19359;51.402;6.778;2022-07-17T07:34:40;19.70;99.90
7784;DHT22;19359;51.402;6.778;2022-07-17T07:37:07;19.70;99.90
7784;DHT22;19359;51.402;6.778;2022-07-17T07:39:35;19.80;99.90
7784;DHT22;19359;51.402;6.778;2022-07-17T07:42:02;20.00;99.90
7784;DHT22;19359;51.402;6.778;2022-07-17T07:44:29;20.10;99.90
7784;DHT22;19359;51.402;6.778;2022-07-17T07:46:56;20.30;99.90
7784;DHT22;19359;51.402;6.778;2022-07-17T07:49:23;20.30;99.90
7784;DHT22;19359;51.402;6.778;2022-07-17T07:51:49;20.30;99.90
7784;DHT22;19359;51.402;6.778;2022-07-17T07:54:16;20.30;99.90
7784;DHT22;19359;51.402;6.778;2022-07-17T07:56:44;20.50;99.90
7784;DHT22;19359;51.402;6.778;2022-07-17T07:59:11;20.70;99.90
7784;DHT22;19359;51.402;6.778;2022-07-17T08:01:38;21.00;99.90
7784;DHT22;19359;51.402;6.778;2022-07-17T08:04:05;21.10;99.90
7784;DHT22;19359;51.402;6.778;2022-07-17T08:06:32;21.10;99.90
7784;DHT22;19359;51.402;6.778;2022-07-17T08:08:59;21.10;99.90
7784;DHT22;19359;51.402;6.778;2022-07-17T08:11:26;21.00;99.90
7784;DHT22;19359;51.402;6.778;2022-07-17T08:13:54;21.10;99.90
7784;DHT22;19359;51.402;6.778;2022-07-17T08:16:21;21.20;99.90
7784;DHT22;19359;51.402;6.778;2022-07-17T08:18:48;21.50;99.90
7784;DHT22;19359;51.402;6.778;2022-07-17T08:21:15;21.40;99.90
7784;DHT22;19359;51.402;6.778;2022-07-17T08:23:42;21.60;99.90
7784;DHT22;19359;51.402;6.778;2022-07-17T08:26:08;21.80;99.90
7784;DHT22;19359;51.402;6.778;2022-07-17T08:28:35;21.90;99.90
7784;DHT22;19359;51.402;6.778;2022-07-17T08:31:04;21.90;99.90
7784;DHT22;19359;51.402;6.778;2022-07-17T08:33:31;21.70;99.90
7784;DHT22;19359;51.402;6.778;2022-07-17T08:35:57;21.70;99.90
7784;DHT22;19359;51.402;6.778;2022-07-17T08:38:24;21.60;99.90
7784;DHT22;19359;51.402;6.778;2022-07-17T08:40:51;21.60;99.90
7784;DHT22;19359;51.402;6.778;2022-07-17T08:43:20;21.80;99.90
7784;DHT22;19359;51.402;6.778;2022-07-17T08:45:48;21.90;99.90
7784;DHT22;19359;51.402;6.778;2022-07-17T08:48:17;22.20;99.90
7784;DHT22;19359;51.402;6.778;2022-07-17T08:50:46;22.30;99.90
7784;DHT22;19359;51.402;6.778;2022-07-17T08:53:12;22.30;99.90
7784;DHT22;19359;51.402;6.778;2022-07-17T08:55:39;22.40;99.90
7784;DHT22;19359;51.402;6.778;2022-07-17T08:58:06;22.40;99.90
7784;DHT22;19359;51.402;6.778;2022-07-17T09:00:33;22.40;99.90
7784;DHT22;19359;51.402;6.778;2022-07-17T09:03:02;22.50;99.90
7784;DHT22;19359;51.402;6.778;2022-07-17T09:05:34;22.60;99.90
7784;DHT22;19359;51.402;6.778;2022-07-17T09:08:01;22.50;99.90
7784;DHT22;19359;51.402;6.778;2022-07-17T09:10:33;22.50;99.90
7784;DHT22;19359;51.402;6.778;2022-07-17T09:13:01;22.50;99.90
7784;DHT22;19359;51.402;6.778;2022-07-17T09:15:27;22.50;99.90
7784;DHT22;19359;51.402;6.778;2022-07-17T09:17:55;22.30;99.90
7784;DHT22;19359;51.402;6.778;2022-07-17T09:20:23;22.40;99.90
7784;DHT22;19359;51.402;6.778;2022-07-17T09:22:58;22.70;99.90
7784;DHT22;19359;51.402;6.778;2022-07-17T09:25:33;22.60;99.90
7784;DHT22;19359;51.402;6.778;2022-07-17T09:28:01;22.80;99.90
7784;DHT22;19359;51.402;6.778;2022-07-17T09:30:29;22.90;99.90
7784;DHT22;19359;51.402;6.778;2022-07-17T09:32:56;23.10;99.90
7784;DHT22;19359;51.402;6.778;2022-07-17T09:35:24;23.50;99.90
7784;DHT22;19359;51.402;6.778;2022-07-17T09:37:53;23.60;99.90
7784;DHT22;19359;51.402;6.778;2022-07-17T09:40:22;23.50;99.90
7784;DHT22;19359;51.402;6.778;2022-07-17T09:43:07;23.50;99.90
7784;DHT22;19359;51.402;6.778;2022-07-17T09:45:34;23.60;99.90
7784;DHT22;19359;51.402;6.778;2022-07-17T09:48:02;23.60;99.90
7784;DHT22;19359;51.402;6.778;2022-07-17T09:50:29;23.60;99.90
7784;DHT22;19359;51.402;6.778;2022-07-17T09:52:58;23.50;99.90
7784;DHT22;19359;51.402;6.778;2022-07-17T09:55:30;23.70;99.90
7784;DHT22;19359;51.402;6.778;2022-07-17T09:57:59;23.60;99.90
7784;DHT22;19359;51.402;6.778;2022-07-17T10:00:27;23.70;99.90
7784;DHT22;19359;51.402;6.778;2022-07-17T10:02:54;23.90;99.90
7784;DHT22;19359;51.402;6.778;2022-07-17T10:05:21;23.90;99.90
7784;DHT22;19359;51.402;6.778;2022-07-17T10:07:48;24.30;99.90
7784;DHT22;19359;51.402;6.778;2022-07-17T10:10:17;24.70;99.90
7784;DHT22;19359;51.402;6.778;2022-07-17T10:12:47;24.80;99.90
7784;DHT22;19359;51.402;6.778;2022-07-17T10:15:15;24.50;99.90
7784;DHT22;19359;51.402;6.778;2022-07-17T10:17:42;24.60;99.90
7784;DHT22;19359;51.402;6.778;2022-07-17T10:20:10;24.70;99.90
7784;DHT22;19359;51.402;6.778;2022-07-17T10:22:43;24.80;99.90
7784;DHT22;19359;51.402;6.778;2022-07-17T10:25:13;25.00;99.90
7784;DHT22;19359;51.402;6.778;2022-07-17T10:27:48;24.70;99.90
7784;DHT22;19359;51.402;6.778;2022-07-17T10:30:22;24.50;99.90
7784;DHT22;19359;51.402;6.778;2022-07-17T10:32:54;24.70;99.90
7784;DHT22;19359;51.402;6.778;2022-07-17T10:35:21;24.60;99.90
7784;DHT22;19359;51.402;6.778;2022-07-17T10:37:48;24.70;99.90
7784;DHT22;19359;51.402;6.778;2022-07-17T10:40:18;24.90;99.90
7784;DHT22;19359;51.402;6.778;2022-07-17T10:42:57;24.80;99.90
7784;DHT22;19359;51.402;6.778;2022-07-17T10:45:28;24.80;99.90
7784;DHT22;19359;51.402;6.778;2022-07-17T10:48:00;24.50;99.90
7784;DHT22;19359;51.402;6.778;2022-07-17T10:50:28;24.50;99.90
7784;DHT22;19359;51.402;6.778;2022-07-17T10:53:08;24.90;99.90
7784;DHT22;19359;51.402;6.778;2022-07-17T10:55:36;25.20;99.90
7784;DHT22;19359;51.402;6.778;2022-07-17T10:58:23;25.40;99.90
7784;DHT22;19359;51.402;6.778;2022-07-17T11:00:58;25.70;99.90
7784;DHT22;19359;51.402;6.778;2022-07-17T11:03:26;25.70;99.90
7784;DHT22;19359;51.402;6.778;2022-07-17T11:05:53;25.70;99.90
7784;DHT22;19359;51.402;6.778;2022-07-17T11:08:20;25.30;99.90
7784;DHT22;19359;51.402;6.778;2022-07-17T11:10:47;25.50;99.90
7784;DHT22;19359;51.402;6.778;2022-07-17T11:13:16;25.90;99.90
7784;DHT22;19359;51.402;6.778;2022-07-17T11:15:44;26.00;99.90
7784;DHT22;19359;51.402;6.778;2022-07-17T11:18:13;25.80;99.90
7784;DHT22;19359;51.402;6.778;2022-07-17T11:20:47;25.80;99.90
7784;DHT22;19359;51.402;6.778;2022-07-17T11:23:15;25.70;99.90
7784;DHT22;19359;51.402;6.778;2022-07-17T11:25:52;25.90;99.90
7784;DHT22;19359;51.402;6.778;2022-07-17T11:28:32;26.30;99.90
7784;DHT22;19359;51.402;6.778;2022-07-17T11:30:59;26.10;99.90
7784;DHT22;19359;51.402;6.778;2022-07-17T11:33:27;26.20;99.90
7784;DHT22;19359;51.402;6.778;2022-07-17T11:35:54;26.30;99.90
7784;DHT22;19359;51.402;6.778;2022-07-17T11:38:25;26.40;99.90
7784;DHT22;19359;51.402;6.778;2022-07-17T11:40:52;26.80;99.90
7784;DHT22;19359;51.402;6.778;2022-07-17T11:43:19;26.90;99.90
7784;DHT22;19359;51.402;6.778;2022-07-17T11:45:50;26.90;99.90
7784;DHT22;19359;51.402;6.778;2022-07-17T11:48:17;26.90;99.90
7784;DHT22;19359;51.402;6.778;2022-07-17T11:50:54;27.00;99.90
7784;DHT22;19359;51.402;6.778;2022-07-17T11:53:31;26.90;99.90
7784;DHT22;19359;51.402;6.778;2022-07-17T11:55:58;27.00;99.90
7784;DHT22;19359;51.402;6.778;2022-07-17T11:58:25;27.00;99.90
7784;DHT22;19359;51.402;6.778;2022-07-17T12:01:02;27.40;99.90
7784;DHT22;19359;51.402;6.778;2022-07-17T12:03:29;27.30;99.90
7784;DHT22;19359;51.402;6.778;2022-07-17T12:05:56;27.30;99.90
7784;DHT22;19359;51.402;6.778;2022-07-17T12:08:23;27.20;99.90
7784;DHT22;19359;51.402;6.778;2022-07-17T12:11:00;27.50;99.90
7784;DHT22;19359;51.402;6.778;2022-07-17T12:13:41;27.50;99.90
7784;DHT22;19359;51.402;6.778;2022-07-17T12:16:27;27.40;99.90
7784;DHT22;19359;51.402;6.778;2022-07-17T12:19:08;27.00;99.90
7784;DHT22;19359;51.402;6.778;2022-07-17T12:21:51;26.80;99.90
7784;DHT22;19359;51.402;6.778;2022-07-17T12:24:21;27.40;99.90
7784;DHT22;19359;51.402;6.778;2022-07-17T12:26:48;27.80;99.90
7784;DHT22;19359;51.402;6.778;2022-07-17T12:29:16;28.00;99.90
7784;DHT22;19359;51.402;6.778;2022-07-17T12:31:45;28.20;99.90
7784;DHT22;19359;51.402;6.778;2022-07-17T12:34:12;28.20;99.90
7784;DHT22;19359;51.402;6.778;2022-07-17T12:36:39;28.30;99.90
7784;DHT22;19359;51.402;6.778;2022-07-17T12:39:05;28.20;99.90
7784;DHT22;19359;51.402;6.778;2022-07-17T12:41:32;28.20;99.90
7784;DHT22;19359;51.402;6.778;2022-07-17T12:43:59;28.30;99.90
7784;DHT22;19359;51.402;6.778;2022-07-17T12:46:26;28.50;99.90
7784;DHT22;19359;51.402;6.778;2022-07-17T12:48:54;28.80;99.90
7784;DHT22;19359;51.402;6.778;2022-07-17T12:51:22;28.90;99.90
7784;DHT22;19359;51.402;6.778;2022-07-17T12:53:49;29.40;99.90
7784;DHT22;19359;51.402;6.778;2022-07-17T12:56:16;29.70;99.90
7784;DHT22;19359;51.402;6.778;2022-07-17T12:58:43;29.60;99.90
7784;DHT22;19359;51.402;6.778;2022-07-17T13:01:11;29.30;99.90
7784;DHT22;19359;51.402;6.778;2022-07-17T13:03:37;29.90;99.90
7784;DHT22;19359;51.402;6.778;2022-07-17T13:06:06;29.50;99.90
7784;DHT22;19359;51.402;6.778;2022-07-17T13:08:33;29.10;99.90
7784;DHT22;19359;51.402;6.778;2022-07-17T13:11:00;29.10;99.90
7784;DHT22;19359;51.402;6.778;2022-07-17T13:13:28;29.40;99.90
7784;DHT22;19359;51.402;6.778;2022-07-17T13:15:55;29.80;99.90
7784;DHT22;19359;51.402;6.778;2022-07-17T13:20:49;30.40;99.90
7784;DHT22;19359;51.402;6.778;2022-07-17T13:23:18;30.50;99.90
7784;DHT22;19359;51.402;6.778;2022-07-17T13:25:44;30.00;99.90
7784;DHT22;19359;51.402;6.778;2022-07-17T13:28:11;30.10;99.90
7784;DHT22;19359;51.402;6.778;2022-07-17T13:30:39;30.60;99.90
7784;DHT22;19359;51.402;6.778;2022-07-17T13:33:06;31.00;99.90
7784;DHT22;19359;51.402;6.778;2022-07-17T13:35:32;31.50;99.90
7784;DHT22;19359;51.402;6.778;2022-07-17T13:37:59;32.00;99.90
7784;DHT22;19359;51.402;6.778;2022-07-17T13:40:29;31.00;99.90
7784;DHT22;19359;51.402;6.778;2022-07-17T13:42:57;30.90;99.90
7784;DHT22;19359;51.402;6.778;2022-07-17T13:45:25;30.80;99.90
7784;DHT22;19359;51.402;6.778;2022-07-17T13:47:52;31.40;99.90
7784;DHT22;19359;51.402;6.778;2022-07-17T13:50:20;32.10;99.90
7784;DHT22;19359;51.402;6.778;2022-07-17T13:52:46;32.30;99.90
7784;DHT22;19359;51.402;6.778;2022-07-17T13:55:13;32.70;99.90
7784;DHT22;19359;51.402;6.778;2022-07-17T13:57:42;32.60;99.90
7784;DHT22;19359;51.402;6.778;2022-07-17T14:00:11;32.60;99.90
7784;DHT22;19359;51.402;6.778;2022-07-17T14:02:38;33.10;99.90
7784;DHT22;19359;51.402;6.778;2022-07-17T14:05:07;33.40;99.90
7784;DHT22;19359;51.402;6.778;2022-07-17T14:07:34;33.40;99.90
7784;DHT22;19359;51.402;6.778;2022-07-17T14:10:01;33.80;99.90
7784;DHT22;19359;51.402;6.778;2022-07-17T14:12:28;33.30;99.90
7784;DHT22;19359;51.402;6.778;2022-07-17T14:14:56;33.00;99.90
7784;DHT22;19359;51.402;6.778;2022-07-17T14:17:23;32.20;99.90
7784;DHT22;19359;51.402;6.778;2022-07-17T14:19:50;32.20;99.90
7784;DHT22;19359;51.402;6.778;2022-07-17T14:22:17;32.60;99.90
7784;DHT22;19359;51.402;6.778;2022-07-17T14:24:44;32.60;99.90
7784;DHT22;19359;51.402;6.778;2022-07-17T14:27:10;33.20;99.90
7784;DHT22;19359;51.402;6.778;2022-07-17T14:29:37;33.50;99.90
7784;DHT22;19359;51.402;6.778;2022-07-17T14:32:06;32.90;99.90
7784;DHT22;19359;51.402;6.778;2022-07-17T14:34:33;33.20;99.90
7784;DHT22;19359;51.402;6.778;2022-07-17T14:37:00;33.70;99.90
7784;DHT22;19359;51.402;6.778;2022-07-17T14:39:28;34.50;99.90
7784;DHT22;19359;51.402;6.778;2022-07-17T14:41:55;34.40;99.90
7784;DHT22;19359;51.402;6.778;2022-07-17T14:44:22;33.00;99.90
7784;DHT22;19359;51.402;6.778;2022-07-17T14:46:49;33.30;99.90
7784;DHT22;19359;51.402;6.778;2022-07-17T14:49:17;33.70;99.90
7784;DHT22;19359;51.402;6.778;2022-07-17T14:51:44;34.60;99.90
7784;DHT22;19359;51.402;6.778;2022-07-17T14:54:11;34.80;99.90
7784;DHT22;19359;51.402;6.778;2022-07-17T14:56:38;34.60;99.90
7784;DHT22;19359;51.402;6.778;2022-07-17T14:59:05;34.70;99.90
7784;DHT22;19359;51.402;6.778;2022-07-17T15:01:31;34.40;99.90
7784;DHT22;19359;51.402;6.778;2022-07-17T15:04:01;33.60;99.90
7784;DHT22;19359;51.402;6.778;2022-07-17T15:06:29;34.10;99.90
7784;DHT22;19359;51.402;6.778;2022-07-17T15:08:56;34.70;99.90
7784;DHT22;19359;51.402;6.778;2022-07-17T15:11:22;35.00;99.90
7784;DHT22;19359;51.402;6.778;2022-07-17T15:13:49;35.50;99.90
7784;DHT22;19359;51.402;6.778;2022-07-17T15:16:16;35.20;99.90
7784;DHT22;19359;51.402;6.778;2022-07-17T15:18:43;35.60;99.90
7784;DHT22;19359;51.402;6.778;2022-07-17T15:21:11;35.00;99.90
7784;DHT22;19359;51.402;6.778;2022-07-17T15:23:39;35.00;99.90
7784;DHT22;19359;51.402;6.778;2022-07-17T15:26:07;35.30;99.90
7784;DHT22;19359;51.402;6.778;2022-07-17T15:28:34;35.40;99.90
7784;DHT22;19359;51.402;6.778;2022-07-17T15:31:00;35.80;99.90
7784;DHT22;19359;51.402;6.778;2022-07-17T15:33:27;35.60;99.90
7784;DHT22;19359;51.402;6.778;2022-07-17T15:35:54;35.30;99.90
7784;DHT22;19359;51.402;6.778;2022-07-17T15:38:21;35.00;99.90
7784;DHT22;19359;51.402;6.778;2022-07-17T15:40:49;33.80;99.90
7784;DHT22;19359;51.402;6.778;2022-07-17T15:43:16;34.40;99.90
7784;DHT22;19359;51.402;6.778;2022-07-17T15:45:43;34.30;99.90
7784;DHT22;19359;51.402;6.778;2022-07-17T15:48:10;34.60;99.90
7784;DHT22;19359;51.402;6.778;2022-07-17T15:50:37;34.60;99.90
7784;DHT22;19359;51.402;6.778;2022-07-17T15:53:03;35.00;99.90
7784;DHT22;19359;51.402;6.778;2022-07-17T15:55:30;34.80;99.90
7784;DHT22;19359;51.402;6.778;2022-07-17T15:57:58;35.10;99.90
7784;DHT22;19359;51.402;6.778;2022-07-17T16:00:25;35.10;99.90
7784;DHT22;19359;51.402;6.778;2022-07-17T16:02:52;35.50;99.90